createdAt,value
2022-12-18T00:01:24.614Z,-4.78
2022-12-18T00:03:52.223Z,-4.81
2022-12-18T00:06:19.884Z,-4.83
2022-12-18T00:08:47.453Z,-4.85
2022-12-18T00:11:23.363Z,-4.92
2022-12-18T00:13:50.630Z,-4.97
2022-12-18T00:16:21.430Z,-5.01
2022-12-18T00:18:49.282Z,-5.00
2022-12-18T00:21:16.378Z,-4.95
2022-12-18T00:23:44.761Z,-4.93
2022-12-18T00:26:17.320Z,-4.91
2022-12-18T00:28:44.351Z,-4.93
2022-12-18T00:31:14.402Z,-4.88
2022-12-18T00:33:41.499Z,-4.85
2022-12-18T00:36:11.740Z,-4.81
2022-12-18T00:38:39.523Z,-4.82
2022-12-18T00:41:08.356Z,-4.87
2022-12-18T00:43:35.469Z,-4.95
2022-12-18T00:46:02.313Z,-4.97
2022-12-18T00:48:28.783Z,-4.98
2022-12-18T00:50:55.277Z,-4.98
2022-12-18T00:53:21.770Z,-4.97
2022-12-18T00:55:48.489Z,-4.96
2022-12-18T00:58:17.229Z,-4.97
2022-12-18T01:00:44.156Z,-4.96
2022-12-18T01:03:14.336Z,-4.95
2022-12-18T01:05:41.885Z,-4.96
2022-12-18T01:08:08.249Z,-5.02
2022-12-18T01:10:34.650Z,-4.99
2022-12-18T01:13:01.024Z,-5.01
2022-12-18T01:15:27.506Z,-5.00
2022-12-18T01:17:54.429Z,-4.99
2022-12-18T01:20:21.562Z,-5.01
2022-12-18T01:22:47.929Z,-5.01
2022-12-18T01:25:14.358Z,-5.02
2022-12-18T01:27:40.790Z,-5.04
2022-12-18T01:30:07.825Z,-5.06
2022-12-18T01:32:34.323Z,-5.04
2022-12-18T01:35:00.670Z,-5.06
2022-12-18T01:37:27.141Z,-5.07
2022-12-18T01:39:55.189Z,-5.10
2022-12-18T01:42:22.345Z,-5.15
2022-12-18T01:44:57.680Z,-5.21
2022-12-18T01:47:42.240Z,-5.25
2022-12-18T01:50:23.806Z,-5.32
2022-12-18T01:52:57.648Z,-5.37
2022-12-18T01:55:27.113Z,-5.44
2022-12-18T01:57:56.047Z,-5.50
2022-12-18T02:00:24.582Z,-5.55
2022-12-18T02:02:51.083Z,-5.62
2022-12-18T02:05:30.073Z,-5.65
2022-12-18T02:08:11.649Z,-5.73
2022-12-18T02:10:52.866Z,-5.76
2022-12-18T02:13:44.165Z,-5.80
2022-12-18T02:16:19.755Z,-5.42
2022-12-18T02:18:51.903Z,-4.92
2022-12-18T02:21:28.738Z,-5.21
2022-12-18T02:24:20.486Z,-5.49
2022-12-18T02:26:51.120Z,-5.79
2022-12-18T02:29:32.468Z,-5.97
2022-12-18T02:32:00.497Z,-6.06
2022-12-18T02:34:33.765Z,-6.08
2022-12-18T02:37:03.239Z,-6.15
2022-12-18T02:39:31.698Z,-6.24
2022-12-18T02:42:00.360Z,-6.28
2022-12-18T02:44:26.833Z,-6.32
2022-12-18T02:46:54.968Z,-6.35
2022-12-18T02:49:37.836Z,-6.35
2022-12-18T02:52:22.450Z,-6.40
2022-12-18T02:55:01.437Z,-6.42
2022-12-18T02:57:40.739Z,-6.47
2022-12-18T03:00:19.576Z,-6.54
2022-12-18T03:03:09.032Z,-6.59
2022-12-18T03:05:51.254Z,-6.59
2022-12-18T03:08:25.178Z,-6.61
2022-12-18T03:11:05.613Z,-6.67
2022-12-18T03:13:45.914Z,-6.74
2022-12-18T03:16:18.825Z,-6.80
2022-12-18T03:18:53.806Z,-6.81
2022-12-18T03:21:25.273Z,-6.84
2022-12-18T03:23:54.007Z,-6.86
2022-12-18T03:26:25.586Z,-6.88
2022-12-18T03:29:03.084Z,-6.85
2022-12-18T03:31:32.870Z,-6.80
2022-12-18T03:34:05.156Z,-6.79
2022-12-18T03:36:31.577Z,-6.72
2022-12-18T03:38:59.377Z,-6.71
2022-12-18T03:41:28.773Z,-6.70
2022-12-18T03:44:31.306Z,-6.73
2022-12-18T03:47:20.392Z,-6.71
2022-12-18T03:49:58.914Z,-6.62
2022-12-18T03:52:37.224Z,-6.55
2022-12-18T03:55:06.444Z,-6.59
2022-12-18T03:57:33.705Z,-6.59
2022-12-18T04:00:05.036Z,-6.62
2022-12-18T04:02:33.275Z,-6.62
2022-12-18T04:05:03.548Z,-6.68
2022-12-18T04:07:30.201Z,-6.69
2022-12-18T04:09:59.469Z,-6.71
2022-12-18T04:12:27.204Z,-6.70
2022-12-18T04:14:53.599Z,-6.72
2022-12-18T04:17:20.002Z,-6.75
2022-12-18T04:19:46.337Z,-6.77
2022-12-18T04:22:12.725Z,-6.77
2022-12-18T04:24:39.356Z,-6.76
2022-12-18T04:27:06.078Z,-6.72
2022-12-18T04:29:33.001Z,-6.72
2022-12-18T04:31:59.377Z,-6.72
2022-12-18T04:34:26.258Z,-6.70
2022-12-18T04:36:52.620Z,-6.67
2022-12-18T04:39:18.933Z,-6.71
2022-12-18T04:41:45.374Z,-6.71
2022-12-18T04:44:12.084Z,-6.70
2022-12-18T04:46:38.549Z,-6.65
2022-12-18T04:49:04.941Z,-6.66
2022-12-18T04:51:31.273Z,-6.72
2022-12-18T04:53:57.677Z,-6.70
2022-12-18T04:56:24.109Z,-6.65
2022-12-18T04:58:50.504Z,-6.64
2022-12-18T05:01:18.818Z,-6.66
2022-12-18T05:03:46.016Z,-6.67
2022-12-18T05:06:12.618Z,-6.67
2022-12-18T05:08:39.356Z,-6.67
2022-12-18T05:11:10.261Z,-6.71
2022-12-18T05:13:37.357Z,-6.71
2022-12-18T05:16:04.815Z,-6.64
2022-12-18T05:18:32.015Z,-6.65
2022-12-18T05:20:58.476Z,-6.64
2022-12-18T05:23:25.711Z,-6.66
2022-12-18T05:26:03.042Z,-6.62
2022-12-18T05:28:31.665Z,-6.60
2022-12-18T05:31:00.822Z,-6.57
2022-12-18T05:33:30.172Z,-6.52
2022-12-18T05:36:03.636Z,-6.54
2022-12-18T05:38:32.111Z,-6.55
2022-12-18T05:40:59.186Z,-6.63
2022-12-18T05:43:27.168Z,-6.67
2022-12-18T05:45:54.265Z,-6.70
2022-12-18T05:48:21.765Z,-6.74
2022-12-18T05:50:49.661Z,-6.80
2022-12-18T05:53:17.979Z,-6.83
2022-12-18T05:55:45.128Z,-6.88
2022-12-18T05:58:13.268Z,-6.90
2022-12-18T06:00:44.084Z,-6.98
2022-12-18T06:03:12.690Z,-7.03
2022-12-18T06:05:41.917Z,-7.05
2022-12-18T06:08:08.979Z,-7.06
2022-12-18T06:10:35.406Z,-7.13
2022-12-18T06:13:01.810Z,-7.20
2022-12-18T06:15:28.361Z,-7.29
2022-12-18T06:17:55.141Z,-7.34
2022-12-18T06:20:21.705Z,-7.37
2022-12-18T06:22:48.083Z,-7.45
2022-12-18T06:25:14.493Z,-7.46
2022-12-18T06:27:40.954Z,-7.44
2022-12-18T06:30:09.468Z,-7.42
2022-12-18T06:32:35.853Z,-7.53
2022-12-18T06:35:02.222Z,-7.61
2022-12-18T06:37:29.167Z,-7.69
2022-12-18T06:39:55.616Z,-7.74
2022-12-18T06:42:25.594Z,-7.76
2022-12-18T06:44:51.987Z,-7.78
2022-12-18T06:47:19.110Z,-7.79
2022-12-18T06:49:45.468Z,-7.77
2022-12-18T06:52:11.862Z,-7.78
2022-12-18T06:54:38.228Z,-7.82
2022-12-18T06:57:04.726Z,-7.85
2022-12-18T06:59:31.085Z,-7.93
2022-12-18T07:01:57.577Z,-7.95
2022-12-18T07:04:29.517Z,-7.95
2022-12-18T07:06:55.907Z,-7.95
2022-12-18T07:09:22.253Z,-7.98
2022-12-18T07:11:48.659Z,-8.00
2022-12-18T07:14:15.037Z,-8.01
2022-12-18T07:16:41.837Z,-8.01
2022-12-18T07:19:08.244Z,-8.04
2022-12-18T07:21:34.627Z,-8.04
2022-12-18T07:24:00.988Z,-8.04
2022-12-18T07:26:27.422Z,-8.04
2022-12-18T07:28:57.024Z,-8.02
2022-12-18T07:31:23.517Z,-8.02
2022-12-18T07:33:51.074Z,-8.01
2022-12-18T07:36:18.062Z,-7.92
2022-12-18T07:38:47.546Z,-7.88
2022-12-18T07:41:14.737Z,-7.91
2022-12-18T07:43:42.386Z,-7.83
2022-12-18T07:46:10.285Z,-7.79
2022-12-18T07:48:36.714Z,-7.75
2022-12-18T07:51:05.238Z,-7.67
2022-12-18T07:53:32.594Z,-7.63
2022-12-18T07:56:26.020Z,-7.49
2022-12-18T07:58:50.185Z,-7.32
2022-12-18T08:01:16.610Z,-7.27
2022-12-18T08:03:43.682Z,-7.17
2022-12-18T08:06:10.952Z,-7.02
2022-12-18T08:08:37.997Z,-6.96
2022-12-18T08:11:04.521Z,-6.83
2022-12-18T08:13:30.866Z,-6.68
2022-12-18T08:16:15.119Z,-6.58
2022-12-18T08:18:41.498Z,-6.49
2022-12-18T08:21:13.609Z,-6.37
2022-12-18T08:23:43.307Z,-6.30
2022-12-18T08:26:10.444Z,-6.18
2022-12-18T08:28:36.809Z,-6.09
2022-12-18T08:31:03.618Z,-5.96
2022-12-18T08:33:30.049Z,-5.91
2022-12-18T08:35:56.437Z,-5.87
2022-12-18T08:38:23.818Z,-5.85
2022-12-18T08:40:50.165Z,-5.85
2022-12-18T08:43:35.305Z,-5.76
2022-12-18T08:46:01.740Z,-5.68
2022-12-18T08:48:28.134Z,-5.60
2022-12-18T08:50:59.099Z,-5.48
2022-12-18T08:53:26.007Z,-5.40
2022-12-18T08:55:53.215Z,-5.35
2022-12-18T08:58:20.135Z,-5.21
2022-12-18T09:00:46.737Z,-5.02
2022-12-18T09:03:14.536Z,-4.82
2022-12-18T09:05:41.113Z,-4.70
2022-12-18T09:08:07.754Z,-4.62
2022-12-18T09:10:36.554Z,-4.57
2022-12-18T09:13:06.604Z,-4.50
2022-12-18T09:15:32.975Z,-4.40
2022-12-18T09:17:59.389Z,-4.35
2022-12-18T09:20:25.798Z,-4.31
2022-12-18T09:22:52.122Z,-4.25
2022-12-18T09:25:18.481Z,-4.20
2022-12-18T09:27:48.044Z,-4.11
2022-12-18T09:30:14.426Z,-4.03
2022-12-18T09:32:40.745Z,-3.89
2022-12-18T09:35:07.342Z,-3.77
2022-12-18T09:37:33.698Z,-3.71
2022-12-18T09:40:00.015Z,-3.73
2022-12-18T09:42:26.361Z,-3.65
2022-12-18T09:44:55.320Z,-3.59
2022-12-18T09:47:27.145Z,-3.52
2022-12-18T09:50:00.507Z,-3.50
2022-12-18T09:52:47.077Z,-3.45
2022-12-18T09:55:25.856Z,-3.35
2022-12-18T09:57:57.277Z,-3.27
2022-12-18T10:00:25.986Z,-3.26
2022-12-18T10:02:57.367Z,-3.20
2022-12-18T10:05:54.953Z,-3.11
2022-12-18T10:08:29.423Z,-3.05
2022-12-18T10:11:12.011Z,-2.95
2022-12-18T10:14:02.305Z,-2.88
2022-12-18T10:16:40.870Z,-2.83
2022-12-18T10:19:31.838Z,-2.81
2022-12-18T10:22:28.364Z,-2.79
2022-12-18T10:25:23.781Z,-2.80
2022-12-18T10:27:56.172Z,-2.76
2022-12-18T10:30:25.216Z,-2.76
2022-12-18T10:32:52.214Z,-2.68
2022-12-18T10:35:24.362Z,-2.65
2022-12-18T10:38:22.362Z,-2.62
2022-12-18T10:40:48.657Z,-2.59
2022-12-18T10:43:17.170Z,-2.54
2022-12-18T10:46:00.180Z,-2.50
2022-12-18T10:48:28.098Z,-2.47
2022-12-18T10:51:10.874Z,-2.41
2022-12-18T10:53:42.317Z,-2.40
2022-12-18T10:56:09.572Z,-2.34
2022-12-18T10:58:38.735Z,-2.27
2022-12-18T11:01:12.831Z,-2.27
2022-12-18T11:03:42.044Z,-2.23
2022-12-18T11:06:12.702Z,-2.19
2022-12-18T11:08:40.601Z,-2.17
2022-12-18T11:11:22.025Z,-2.12
2022-12-18T11:14:04.997Z,-2.11
2022-12-18T11:16:36.911Z,-2.07
2022-12-18T11:19:36.861Z,-2.05
2022-12-18T11:22:20.378Z,-1.96
2022-12-18T11:28:27.491Z,-1.88
2022-12-18T11:31:33.614Z,-1.81
2022-12-18T11:34:28.163Z,-1.73
2022-12-18T11:36:53.682Z,-1.70
2022-12-18T11:39:43.527Z,-1.68
2022-12-18T11:42:18.181Z,-1.65
2022-12-18T11:45:18.147Z,-1.58
2022-12-18T11:47:57.827Z,-1.55
2022-12-18T11:51:03.527Z,-1.53
2022-12-18T11:53:31.270Z,-1.48
2022-12-18T11:56:06.975Z,-1.44
2022-12-18T11:58:48.754Z,-1.49
2022-12-18T12:01:21.117Z,-1.49
2022-12-18T12:04:08.045Z,-1.48
2022-12-18T12:07:07.987Z,-1.45
2022-12-18T12:09:56.088Z,-1.44
2022-12-18T12:12:54.788Z,-1.48
2022-12-18T12:15:47.665Z,-1.47
2022-12-18T12:18:28.859Z,-1.45
2022-12-18T12:21:23.642Z,-1.41
2022-12-18T12:24:05.031Z,-1.39
2022-12-18T12:26:43.641Z,-1.34
2022-12-18T12:29:31.349Z,-1.30
2022-12-18T12:32:17.505Z,-1.28
2022-12-18T12:34:48.491Z,-1.25
2022-12-18T12:37:32.256Z,-1.21
2022-12-18T12:40:07.275Z,-1.20
2022-12-18T12:43:11.067Z,-1.24
2022-12-18T12:45:45.596Z,-1.23
2022-12-18T12:48:20.540Z,-1.21
2022-12-18T12:50:48.286Z,-1.17
2022-12-18T12:53:27.438Z,-1.15
2022-12-18T12:55:55.545Z,-1.12
2022-12-18T12:59:04.070Z,-1.11
2022-12-18T13:01:45.453Z,-1.09
2022-12-18T13:04:49.470Z,-1.06
2022-12-18T13:07:33.558Z,-1.06
2022-12-18T13:10:20.584Z,-1.02
2022-12-18T13:12:58.327Z,-1.02
2022-12-18T13:15:41.837Z,-1.00
2022-12-18T13:18:11.238Z,-0.99
2022-12-18T13:20:46.587Z,-0.95
2022-12-18T13:23:29.499Z,-0.98
2022-12-18T13:26:27.960Z,-0.97
2022-12-18T13:28:56.214Z,-0.95
2022-12-18T13:31:31.955Z,-0.94
2022-12-18T13:34:32.684Z,-0.94
2022-12-18T13:37:33.983Z,-0.94
2022-12-18T13:40:00.713Z,-0.94
2022-12-18T13:42:49.266Z,-0.95
2022-12-18T13:45:57.674Z,-0.96
2022-12-18T13:48:26.845Z,-0.96
2022-12-18T13:50:58.662Z,-0.97
2022-12-18T13:53:40.126Z,-0.98
2022-12-18T13:56:06.989Z,-0.95
2022-12-18T13:58:34.001Z,-0.96
2022-12-18T14:01:02.879Z,-0.95
2022-12-18T14:03:31.490Z,-0.94
2022-12-18T14:06:03.354Z,-0.92
2022-12-18T14:08:36.303Z,-0.91
2022-12-18T14:11:06.109Z,-0.91
2022-12-18T14:13:38.290Z,-0.89
2022-12-18T14:16:06.621Z,-0.89
2022-12-18T14:18:49.865Z,-0.88
2022-12-18T14:21:24.031Z,-0.87
2022-12-18T14:24:04.596Z,-0.86
2022-12-18T14:26:34.063Z,-0.88
2022-12-18T14:29:18.558Z,-0.85
2022-12-18T14:31:45.528Z,-0.85
2022-12-18T14:34:27.638Z,-0.83
2022-12-18T14:36:56.238Z,-0.79
2022-12-18T14:39:23.165Z,-0.80
2022-12-18T14:41:50.801Z,-0.80
2022-12-18T14:44:17.318Z,-0.80
2022-12-18T14:46:46.730Z,-0.79
2022-12-18T14:49:25.394Z,-0.82
2022-12-18T14:52:04.093Z,-0.78
2022-12-18T14:54:32.094Z,-0.82
2022-12-18T14:57:03.372Z,-0.85
2022-12-18T14:59:31.229Z,-0.86
2022-12-18T15:02:22.925Z,-0.86
2022-12-18T15:05:01.408Z,-0.86
2022-12-18T15:07:27.859Z,-0.87
2022-12-18T15:10:21.087Z,-0.86
2022-12-18T15:13:07.150Z,-0.86
2022-12-18T15:15:40.514Z,-0.85
2022-12-18T15:18:09.758Z,-0.84
2022-12-18T15:20:47.218Z,-0.82
2022-12-18T15:23:20.829Z,-0.82
2022-12-18T15:25:49.378Z,-0.80
2022-12-18T15:28:20.889Z,-0.82
2022-12-18T15:31:10.037Z,-0.80
2022-12-18T15:33:40.130Z,-0.82
2022-12-18T15:36:12.597Z,-0.82
2022-12-18T15:38:39.249Z,-0.83
2022-12-18T15:41:22.868Z,-0.84
2022-12-18T15:43:54.054Z,-0.83
2022-12-18T15:46:23.158Z,-0.85
2022-12-18T15:48:59.747Z,-0.85
2022-12-18T15:51:34.314Z,-0.85
2022-12-18T15:54:04.588Z,-0.83
2022-12-18T15:56:49.939Z,-0.82
2022-12-18T15:59:20.472Z,-0.84
2022-12-18T16:01:48.987Z,-0.84
2022-12-18T16:04:18.574Z,-0.84
2022-12-18T16:07:13.243Z,-0.86
2022-12-18T16:09:31.319Z,-0.87
2022-12-18T16:12:00.312Z,-0.86
2022-12-18T16:14:29.083Z,-0.87
2022-12-18T16:17:09.907Z,-0.84
2022-12-18T16:19:36.291Z,-0.84
2022-12-18T16:22:02.703Z,-0.84
2022-12-18T16:24:31.913Z,-0.82
2022-12-18T16:27:00.223Z,-0.86
2022-12-18T16:29:28.611Z,-0.85
2022-12-18T16:32:00.128Z,-0.86
2022-12-18T16:34:29.184Z,-0.84
2022-12-18T16:37:01.728Z,-0.81
2022-12-18T16:39:31.847Z,-0.80
2022-12-18T16:41:58.621Z,-0.79
2022-12-18T16:44:25.998Z,-0.78
2022-12-18T16:46:52.482Z,-0.79
2022-12-18T16:49:19.670Z,-0.78
2022-12-18T16:51:49.401Z,-0.78
2022-12-18T16:54:19.031Z,-0.77
2022-12-18T16:56:49.647Z,-0.78
2022-12-18T16:59:16.402Z,-0.76
2022-12-18T17:01:42.866Z,-0.77
2022-12-18T17:04:09.878Z,-0.77
2022-12-18T17:06:40.477Z,-0.75
2022-12-18T17:09:09.626Z,-0.75
2022-12-18T17:11:36.581Z,-0.74
2022-12-18T17:14:23.387Z,-0.74
2022-12-18T17:17:07.463Z,-0.75
2022-12-18T17:19:36.306Z,-0.75
2022-12-18T17:22:02.820Z,-0.74
2022-12-18T17:24:34.513Z,-0.74
2022-12-18T17:27:02.202Z,-0.74
2022-12-18T17:29:28.671Z,-0.73
2022-12-18T17:31:55.042Z,-0.72
2022-12-18T17:34:23.325Z,-0.72
2022-12-18T17:36:49.671Z,-0.72
2022-12-18T17:39:19.209Z,-0.70
2022-12-18T17:41:46.242Z,-0.68
2022-12-18T17:44:12.640Z,-0.69
2022-12-18T17:46:39.417Z,-0.68
2022-12-18T17:49:05.870Z,-0.68
2022-12-18T17:51:32.307Z,-0.68
2022-12-18T17:53:58.669Z,-0.66
2022-12-18T17:56:25.952Z,-0.66
2022-12-18T17:58:52.507Z,-0.66
2022-12-18T18:01:21.837Z,-0.65
2022-12-18T18:03:50.342Z,-0.66
2022-12-18T18:06:20.302Z,-0.66
2022-12-18T18:08:46.707Z,-0.66
2022-12-18T18:11:34.911Z,-0.66
2022-12-18T18:14:02.066Z,-0.63
2022-12-18T18:16:32.578Z,-0.63
2022-12-18T18:19:00.826Z,-0.61
2022-12-18T18:21:28.709Z,-0.60
2022-12-18T18:23:58.787Z,-0.61
2022-12-18T18:26:26.124Z,-0.61
2022-12-18T18:28:54.960Z,-0.60
2022-12-18T18:31:22.153Z,-0.60
2022-12-18T18:33:48.626Z,-0.58
2022-12-18T18:36:15.124Z,-0.55
2022-12-18T18:38:46.727Z,-0.55
2022-12-18T18:41:15.352Z,-0.54
2022-12-18T18:43:42.543Z,-0.55
2022-12-18T18:46:12.060Z,-0.53
2022-12-18T18:48:40.091Z,-0.51
2022-12-18T18:51:13.939Z,-0.51
2022-12-18T18:53:48.718Z,-0.48
2022-12-18T18:59:04.023Z,-0.45
2022-12-18T19:01:30.603Z,-0.41
2022-12-18T19:03:57.109Z,-0.40
2022-12-18T19:06:26.496Z,-0.39
2022-12-18T19:08:54.750Z,-0.37
2022-12-18T19:11:41.631Z,-0.35
2022-12-18T19:14:11.280Z,-0.32
2022-12-18T19:16:38.478Z,-0.29
2022-12-18T19:19:05.207Z,-0.25
2022-12-18T19:21:34.772Z,-0.23
2022-12-18T19:24:02.559Z,-0.20
2022-12-18T19:26:29.392Z,-0.19
2022-12-18T19:29:07.802Z,-0.18
2022-12-18T19:31:36.962Z,-0.19
2022-12-18T19:34:07.493Z,-0.17
2022-12-18T19:36:36.031Z,-0.13
2022-12-18T19:39:11.843Z,-0.13
2022-12-18T19:41:38.250Z,-0.12
2022-12-18T19:44:07.819Z,-0.11
2022-12-18T19:46:35.385Z,-0.09
2022-12-18T19:49:01.825Z,-0.06
2022-12-18T19:51:30.031Z,-0.03
2022-12-18T19:53:59.390Z,0.01
2022-12-18T19:56:30.788Z,-0.01
2022-12-18T19:58:57.667Z,-0.04
2022-12-18T20:01:25.834Z,-0.10
2022-12-18T20:03:55.333Z,-0.23
2022-12-18T20:06:45.205Z,-0.37
2022-12-18T20:09:11.591Z,-0.49
2022-12-18T20:11:41.543Z,-0.55
2022-12-18T20:14:09.590Z,-0.59
2022-12-18T20:16:36.039Z,-0.61
2022-12-18T20:19:04.021Z,-0.62
2022-12-18T20:21:30.813Z,-0.65
2022-12-18T20:23:59.025Z,-0.66
2022-12-18T20:26:25.903Z,-0.68
2022-12-18T20:28:53.727Z,-0.68
2022-12-18T20:31:20.214Z,-0.66
2022-12-18T20:33:48.562Z,-0.66
2022-12-18T20:36:22.517Z,-0.64
2022-12-18T20:38:55.734Z,-0.64
2022-12-18T20:41:24.469Z,-0.66
2022-12-18T20:43:50.875Z,-0.66
2022-12-18T20:46:17.963Z,-0.66
2022-12-18T20:48:46.221Z,-0.69
2022-12-18T20:51:16.737Z,-0.70
2022-12-18T20:53:43.976Z,-0.69
2022-12-18T20:56:13.508Z,-0.71
2022-12-18T20:58:44.485Z,-0.72
2022-12-18T21:01:13.932Z,-0.73
2022-12-18T21:03:42.030Z,-0.73
2022-12-18T21:06:09.758Z,-0.72
2022-12-18T21:08:37.380Z,-0.73
2022-12-18T21:11:40.611Z,-0.72
2022-12-18T21:14:14.013Z,-0.73
2022-12-18T21:16:41.296Z,-0.72
2022-12-18T21:19:07.786Z,-0.72
2022-12-18T21:21:38.460Z,-0.72
2022-12-18T21:24:05.946Z,-0.71
2022-12-18T21:26:32.321Z,-0.71
2022-12-18T21:29:01.776Z,-0.69
2022-12-18T21:31:32.127Z,-0.71
2022-12-18T21:34:02.452Z,-0.71
2022-12-18T21:36:30.281Z,-0.69
2022-12-18T21:38:58.424Z,-0.69
2022-12-18T21:41:44.632Z,-0.66
2022-12-18T21:44:16.797Z,-0.65
2022-12-18T21:46:48.989Z,-0.65
2022-12-18T21:49:23.429Z,-0.63
2022-12-18T21:51:52.318Z,-0.62
2022-12-18T21:54:20.048Z,-0.59
2022-12-18T21:56:57.541Z,-0.60
2022-12-18T21:59:29.569Z,-0.57
2022-12-18T22:01:59.063Z,-0.56
2022-12-18T22:04:26.489Z,-0.55
2022-12-18T22:06:53.438Z,-0.52
2022-12-18T22:09:22.278Z,-0.51
2022-12-18T22:11:49.769Z,-0.51
2022-12-18T22:14:19.849Z,-0.50
2022-12-18T22:16:46.395Z,-0.49
2022-12-18T22:19:14.134Z,-0.50
2022-12-18T22:21:43.813Z,-0.49
2022-12-18T22:24:22.960Z,-0.48
2022-12-18T22:26:51.265Z,-0.47
2022-12-18T22:29:38.797Z,-0.46
2022-12-18T22:32:06.553Z,-0.46
2022-12-18T22:34:36.583Z,-0.44
2022-12-18T22:37:03.645Z,-0.42
2022-12-18T22:39:30.740Z,-0.41
2022-12-18T22:41:58.231Z,-0.41
2022-12-18T22:44:27.755Z,-0.41
2022-12-18T22:46:59.932Z,-0.39
2022-12-18T22:49:33.865Z,-0.41
2022-12-18T22:52:01.394Z,-0.40
2022-12-18T22:54:27.766Z,-0.38
2022-12-18T22:56:54.083Z,-0.37
2022-12-18T22:59:23.100Z,-0.37
2022-12-18T23:01:54.161Z,-0.32
2022-12-18T23:04:31.296Z,-0.34
2022-12-18T23:07:04.620Z,-0.31
2022-12-18T23:09:30.995Z,-0.30
2022-12-18T23:11:57.386Z,-0.29
2022-12-18T23:14:23.706Z,-0.24
2022-12-18T23:16:52.209Z,-0.24
2022-12-18T23:19:19.429Z,-0.20
2022-12-18T23:21:45.805Z,-0.20
2022-12-18T23:24:12.166Z,-0.21
2022-12-18T23:26:38.564Z,-0.21
2022-12-18T23:29:05.092Z,-0.15
2022-12-18T23:31:34.302Z,-0.10
2022-12-18T23:34:01.830Z,-0.12
2022-12-18T23:36:29.292Z,-0.13
2022-12-18T23:38:59.592Z,-0.07
2022-12-18T23:41:30.137Z,-0.07
2022-12-18T23:43:57.552Z,-0.06
2022-12-18T23:46:25.599Z,-0.06
2022-12-18T23:48:52.398Z,-0.05
2022-12-18T23:51:23.236Z,-0.06
2022-12-18T23:53:50.134Z,-0.05
2022-12-18T23:56:16.752Z,-0.02
2022-12-18T23:58:43.715Z,-0.03
